sensor_id;sensor_type;location;lat;lon;timestamp;temperature;humidity
29211;DHT22;16250;49.932;10.980;2022-11-25T00:01:30;2.80;99.90
29211;DHT22;16250;49.932;10.980;2022-11-25T00:03:57;2.70;99.90
29211;DHT22;16250;49.932;10.980;2022-11-25T00:06:25;2.70;99.90
29211;DHT22;16250;49.932;10.980;2022-11-25T00:08:54;2.70;99.90
29211;DHT22;16250;49.932;10.980;2022-11-25T00:11:20;2.80;99.90
29211;DHT22;16250;49.932;10.980;2022-11-25T00:13:46;2.80;99.90
29211;DHT22;16250;49.932;10.980;2022-11-25T00:16:15;2.60;99.90
29211;DHT22;16250;49.932;10.980;2022-11-25T00:18:45;2.60;99.90
29211;DHT22;16250;49.932;10.980;2022-11-25T00:21:14;2.60;99.90
29211;DHT22;16250;49.932;10.980;2022-11-25T00:23:40;2.60;99.90
29211;DHT22;16250;49.932;10.980;2022-11-25T00:26:14;2.40;99.90
29211;DHT22;16250;49.932;10.980;2022-11-25T00:28:41;2.30;99.90
29211;DHT22;16250;49.932;10.980;2022-11-25T00:31:09;2.30;99.90
29211;DHT22;16250;49.932;10.980;2022-11-25T00:33:35;2.30;99.90
29211;DHT22;16250;49.932;10.980;2022-11-25T00:36:05;2.40;99.90
29211;DHT22;16250;49.932;10.980;2022-11-25T00:38:31;2.40;99.90
29211;DHT22;16250;49.932;10.980;2022-11-25T00:40:57;2.50;99.90
29211;DHT22;16250;49.932;10.980;2022-11-25T00:43:42;2.50;99.90
29211;DHT22;16250;49.932;10.980;2022-11-25T00:46:26;2.60;99.90
29211;DHT22;16250;49.932;10.980;2022-11-25T00:48:51;2.50;99.90
29211;DHT22;16250;49.932;10.980;2022-11-25T00:51:17;2.40;99.90
29211;DHT22;16250;49.932;10.980;2022-11-25T00:53:43;2.30;99.90
29211;DHT22;16250;49.932;10.980;2022-11-25T00:56:09;2.20;99.90
29211;DHT22;16250;49.932;10.980;2022-11-25T00:58:41;2.20;99.90
29211;DHT22;16250;49.932;10.980;2022-11-25T01:01:08;2.30;99.90
29211;DHT22;16250;49.932;10.980;2022-11-25T01:03:34;2.30;99.90
29211;DHT22;16250;49.932;10.980;2022-11-25T01:06:06;2.20;99.90
29211;DHT22;16250;49.932;10.980;2022-11-25T01:08:33;2.30;99.90
29211;DHT22;16250;49.932;10.980;2022-11-25T01:10:59;2.30;99.90
29211;DHT22;16250;49.932;10.980;2022-11-25T01:13:25;2.30;99.90
29211;DHT22;16250;49.932;10.980;2022-11-25T01:15:51;2.20;99.90
29211;DHT22;16250;49.932;10.980;2022-11-25T01:18:16;2.20;99.90
29211;DHT22;16250;49.932;10.980;2022-11-25T01:20:42;2.20;99.90
29211;DHT22;16250;49.932;10.980;2022-11-25T01:23:08;2.10;99.90
29211;DHT22;16250;49.932;10.980;2022-11-25T01:25:37;2.10;99.90
29211;DHT22;16250;49.932;10.980;2022-11-25T01:28:03;2.20;99.90
29211;DHT22;16250;49.932;10.980;2022-11-25T01:30:29;2.20;99.90
29211;DHT22;16250;49.932;10.980;2022-11-25T01:32:54;2.20;99.90
29211;DHT22;16250;49.932;10.980;2022-11-25T01:35:20;2.30;99.90
29211;DHT22;16250;49.932;10.980;2022-11-25T01:37:46;2.30;99.90
29211;DHT22;16250;49.932;10.980;2022-11-25T01:40:12;2.30;99.90
29211;DHT22;16250;49.932;10.980;2022-11-25T01:42:48;2.30;99.90
29211;DHT22;16250;49.932;10.980;2022-11-25T01:47:56;2.10;99.90
29211;DHT22;16250;49.932;10.980;2022-11-25T01:50:25;2.10;99.90
29211;DHT22;16250;49.932;10.980;2022-11-25T01:52:54;2.20;99.90
29211;DHT22;16250;49.932;10.980;2022-11-25T01:55:25;2.30;99.90
29211;DHT22;16250;49.932;10.980;2022-11-25T01:58:11;2.30;99.90
29211;DHT22;16250;49.932;10.980;2022-11-25T02:00:38;2.20;99.90
29211;DHT22;16250;49.932;10.980;2022-11-25T02:03:04;2.30;99.90
29211;DHT22;16250;49.932;10.980;2022-11-25T02:08:13;2.20;99.90
29211;DHT22;16250;49.932;10.980;2022-11-25T02:10:41;2.10;99.90
29211;DHT22;16250;49.932;10.980;2022-11-25T02:13:09;2.10;99.90
29211;DHT22;16250;49.932;10.980;2022-11-25T02:15:35;2.10;99.90
29211;DHT22;16250;49.932;10.980;2022-11-25T02:18:01;2.20;99.90
29211;DHT22;16250;49.932;10.980;2022-11-25T02:20:27;2.20;99.90
29211;DHT22;16250;49.932;10.980;2022-11-25T02:23:02;2.20;99.90
29211;DHT22;16250;49.932;10.980;2022-11-25T02:25:36;2.00;99.90
29211;DHT22;16250;49.932;10.980;2022-11-25T02:28:06;1.90;99.90
29211;DHT22;16250;49.932;10.980;2022-11-25T02:30:33;1.90;99.90
29211;DHT22;16250;49.932;10.980;2022-11-25T02:32:59;1.90;99.90
29211;DHT22;16250;49.932;10.980;2022-11-25T02:35:26;1.80;99.90
29211;DHT22;16250;49.932;10.980;2022-11-25T02:37:55;1.70;99.90
29211;DHT22;16250;49.932;10.980;2022-11-25T02:40:22;1.60;99.90
29211;DHT22;16250;49.932;10.980;2022-11-25T02:42:49;1.60;99.90
29211;DHT22;16250;49.932;10.980;2022-11-25T02:45:17;1.60;99.90
29211;DHT22;16250;49.932;10.980;2022-11-25T02:47:45;1.60;99.90
29211;DHT22;16250;49.932;10.980;2022-11-25T02:50:11;1.60;99.90
29211;DHT22;16250;49.932;10.980;2022-11-25T02:52:38;1.60;99.90
29211;DHT22;16250;49.932;10.980;2022-11-25T02:55:04;1.60;99.90
29211;DHT22;16250;49.932;10.980;2022-11-25T02:57:29;1.50;99.90
29211;DHT22;16250;49.932;10.980;2022-11-25T02:59:55;1.60;99.90
29211;DHT22;16250;49.932;10.980;2022-11-25T03:02:20;1.60;99.90
29211;DHT22;16250;49.932;10.980;2022-11-25T03:04:46;1.50;99.90
29211;DHT22;16250;49.932;10.980;2022-11-25T03:07:11;1.40;99.90
29211;DHT22;16250;49.932;10.980;2022-11-25T03:09:37;1.30;99.90
29211;DHT22;16250;49.932;10.980;2022-11-25T03:12:03;1.40;99.90
29211;DHT22;16250;49.932;10.980;2022-11-25T03:14:43;1.40;99.90
29211;DHT22;16250;49.932;10.980;2022-11-25T03:17:09;1.40;99.90
29211;DHT22;16250;49.932;10.980;2022-11-25T03:19:34;1.40;99.90
29211;DHT22;16250;49.932;10.980;2022-11-25T03:22:00;1.20;99.90
29211;DHT22;16250;49.932;10.980;2022-11-25T03:24:25;1.20;99.90
29211;DHT22;16250;49.932;10.980;2022-11-25T03:26:51;1.20;99.90
29211;DHT22;16250;49.932;10.980;2022-11-25T03:29:16;1.20;99.90
29211;DHT22;16250;49.932;10.980;2022-11-25T03:31:42;1.20;99.90
29211;DHT22;16250;49.932;10.980;2022-11-25T03:34:07;1.30;99.90
29211;DHT22;16250;49.932;10.980;2022-11-25T03:36:33;1.20;99.90
29211;DHT22;16250;49.932;10.980;2022-11-25T03:38:58;1.40;99.90
29211;DHT22;16250;49.932;10.980;2022-11-25T03:41:24;1.40;99.90
29211;DHT22;16250;49.932;10.980;2022-11-25T03:43:49;1.30;99.90
29211;DHT22;16250;49.932;10.980;2022-11-25T03:46:15;1.40;99.90
29211;DHT22;16250;49.932;10.980;2022-11-25T03:48:40;1.40;99.90
29211;DHT22;16250;49.932;10.980;2022-11-25T03:51:06;1.40;99.90
29211;DHT22;16250;49.932;10.980;2022-11-25T03:53:31;1.40;99.90
29211;DHT22;16250;49.932;10.980;2022-11-25T03:55:57;1.40;99.90
29211;DHT22;16250;49.932;10.980;2022-11-25T03:58:22;1.40;99.90
29211;DHT22;16250;49.932;10.980;2022-11-25T04:00:48;1.20;99.90
29211;DHT22;16250;49.932;10.980;2022-11-25T04:03:13;1.30;99.90
29211;DHT22;16250;49.932;10.980;2022-11-25T04:05:40;1.30;99.90
29211;DHT22;16250;49.932;10.980;2022-11-25T04:08:05;1.10;99.90
29211;DHT22;16250;49.932;10.980;2022-11-25T04:10:31;1.10;99.90
29211;DHT22;16250;49.932;10.980;2022-11-25T04:12:56;1.10;99.90
29211;DHT22;16250;49.932;10.980;2022-11-25T04:15:22;1.10;99.90
29211;DHT22;16250;49.932;10.980;2022-11-25T04:17:47;1.10;99.90
29211;DHT22;16250;49.932;10.980;2022-11-25T04:20:14;1.20;99.90
29211;DHT22;16250;49.932;10.980;2022-11-25T04:22:40;1.20;99.90
29211;DHT22;16250;49.932;10.980;2022-11-25T04:25:07;1.20;99.90
29211;DHT22;16250;49.932;10.980;2022-11-25T04:27:33;1.20;99.90
29211;DHT22;16250;49.932;10.980;2022-11-25T04:29:59;1.30;99.90
29211;DHT22;16250;49.932;10.980;2022-11-25T04:32:24;1.30;99.90
29211;DHT22;16250;49.932;10.980;2022-11-25T04:34:50;1.20;99.90
29211;DHT22;16250;49.932;10.980;2022-11-25T04:37:16;1.20;99.90
29211;DHT22;16250;49.932;10.980;2022-11-25T04:39:41;1.20;99.90
29211;DHT22;16250;49.932;10.980;2022-11-25T04:42:07;1.30;99.90
29211;DHT22;16250;49.932;10.980;2022-11-25T04:44:51;1.40;99.90
29211;DHT22;16250;49.932;10.980;2022-11-25T04:47:16;1.50;99.90
29211;DHT22;16250;49.932;10.980;2022-11-25T04:49:42;1.50;99.90
29211;DHT22;16250;49.932;10.980;2022-11-25T04:52:07;1.50;99.90
29211;DHT22;16250;49.932;10.980;2022-11-25T04:54:33;1.50;99.90
29211;DHT22;16250;49.932;10.980;2022-11-25T04:56:59;1.50;99.90
29211;DHT22;16250;49.932;10.980;2022-11-25T04:59:24;1.50;99.90
29211;DHT22;16250;49.932;10.980;2022-11-25T05:02:26;1.40;99.90
29211;DHT22;16250;49.932;10.980;2022-11-25T05:04:53;1.50;99.90
29211;DHT22;16250;49.932;10.980;2022-11-25T05:07:20;1.50;99.90
29211;DHT22;16250;49.932;10.980;2022-11-25T05:09:46;1.40;99.90
29211;DHT22;16250;49.932;10.980;2022-11-25T05:12:16;1.40;99.90
29211;DHT22;16250;49.932;10.980;2022-11-25T05:14:42;1.40;99.90
29211;DHT22;16250;49.932;10.980;2022-11-25T05:17:13;1.40;99.90
29211;DHT22;16250;49.932;10.980;2022-11-25T05:19:39;1.30;99.90
29211;DHT22;16250;49.932;10.980;2022-11-25T05:22:05;1.40;99.90
29211;DHT22;16250;49.932;10.980;2022-11-25T05:24:30;1.40;99.90
29211;DHT22;16250;49.932;10.980;2022-11-25T05:26:56;1.40;99.90
29211;DHT22;16250;49.932;10.980;2022-11-25T05:29:21;1.30;99.90
29211;DHT22;16250;49.932;10.980;2022-11-25T05:31:47;1.00;99.90
29211;DHT22;16250;49.932;10.980;2022-11-25T05:34:12;1.00;99.90
29211;DHT22;16250;49.932;10.980;2022-11-25T05:36:38;1.10;99.90
29211;DHT22;16250;49.932;10.980;2022-11-25T05:39:04;1.00;99.90
29211;DHT22;16250;49.932;10.980;2022-11-25T05:41:29;1.00;99.90
29211;DHT22;16250;49.932;10.980;2022-11-25T05:43:55;1.00;99.90
29211;DHT22;16250;49.932;10.980;2022-11-25T05:46:21;0.90;99.90
29211;DHT22;16250;49.932;10.980;2022-11-25T05:48:47;1.00;99.90
29211;DHT22;16250;49.932;10.980;2022-11-25T05:51:12;1.00;99.90
29211;DHT22;16250;49.932;10.980;2022-11-25T05:53:38;1.10;99.90
29211;DHT22;16250;49.932;10.980;2022-11-25T05:56:05;1.20;99.90
29211;DHT22;16250;49.932;10.980;2022-11-25T05:58:31;1.30;99.90
29211;DHT22;16250;49.932;10.980;2022-11-25T06:00:57;1.30;99.90
29211;DHT22;16250;49.932;10.980;2022-11-25T06:03:28;1.40;99.90
29211;DHT22;16250;49.932;10.980;2022-11-25T06:05:57;1.40;99.90
29211;DHT22;16250;49.932;10.980;2022-11-25T06:08:24;1.30;99.90
29211;DHT22;16250;49.932;10.980;2022-11-25T06:10:50;1.30;99.90
29211;DHT22;16250;49.932;10.980;2022-11-25T06:13:16;1.30;99.90
29211;DHT22;16250;49.932;10.980;2022-11-25T06:15:42;1.20;99.90
29211;DHT22;16250;49.932;10.980;2022-11-25T06:18:10;1.20;99.90
29211;DHT22;16250;49.932;10.980;2022-11-25T06:20:36;1.20;99.90
29211;DHT22;16250;49.932;10.980;2022-11-25T06:23:02;1.10;99.90
29211;DHT22;16250;49.932;10.980;2022-11-25T06:25:29;1.00;99.90
29211;DHT22;16250;49.932;10.980;2022-11-25T06:27:55;0.90;99.90
29211;DHT22;16250;49.932;10.980;2022-11-25T06:30:21;0.80;99.90
29211;DHT22;16250;49.932;10.980;2022-11-25T06:32:46;0.80;99.90
29211;DHT22;16250;49.932;10.980;2022-11-25T06:35:12;0.80;99.90
29211;DHT22;16250;49.932;10.980;2022-11-25T06:37:38;0.80;99.90
29211;DHT22;16250;49.932;10.980;2022-11-25T06:40:04;0.90;99.90
29211;DHT22;16250;49.932;10.980;2022-11-25T06:42:30;0.80;99.90
29211;DHT22;16250;49.932;10.980;2022-11-25T06:44:55;0.80;99.90
29211;DHT22;16250;49.932;10.980;2022-11-25T06:47:21;0.80;99.90
29211;DHT22;16250;49.932;10.980;2022-11-25T06:49:47;0.80;99.90
29211;DHT22;16250;49.932;10.980;2022-11-25T06:52:13;0.90;99.90
29211;DHT22;16250;49.932;10.980;2022-11-25T06:54:38;1.00;99.90
29211;DHT22;16250;49.932;10.980;2022-11-25T06:57:06;1.00;99.90
29211;DHT22;16250;49.932;10.980;2022-11-25T06:59:32;1.00;99.90
29211;DHT22;16250;49.932;10.980;2022-11-25T07:01:58;1.00;99.90
29211;DHT22;16250;49.932;10.980;2022-11-25T07:04:23;0.90;99.90
29211;DHT22;16250;49.932;10.980;2022-11-25T07:06:50;0.90;99.90
29211;DHT22;16250;49.932;10.980;2022-11-25T07:09:15;0.90;99.90
29211;DHT22;16250;49.932;10.980;2022-11-25T07:11:41;0.90;99.90
29211;DHT22;16250;49.932;10.980;2022-11-25T07:14:10;1.00;99.90
29211;DHT22;16250;49.932;10.980;2022-11-25T07:16:38;1.00;99.90
29211;DHT22;16250;49.932;10.980;2022-11-25T07:19:04;1.10;99.90
29211;DHT22;16250;49.932;10.980;2022-11-25T07:21:30;1.10;99.90
29211;DHT22;16250;49.932;10.980;2022-11-25T07:23:59;1.00;99.90
29211;DHT22;16250;49.932;10.980;2022-11-25T07:26:27;0.80;99.90
29211;DHT22;16250;49.932;10.980;2022-11-25T07:28:56;0.60;99.90
29211;DHT22;16250;49.932;10.980;2022-11-25T07:31:25;0.40;99.90
29211;DHT22;16250;49.932;10.980;2022-11-25T07:34:14;0.60;99.90
29211;DHT22;16250;49.932;10.980;2022-11-25T07:36:38;0.70;99.90
29211;DHT22;16250;49.932;10.980;2022-11-25T07:39:11;0.50;99.90
29211;DHT22;16250;49.932;10.980;2022-11-25T07:41:38;0.50;99.90
29211;DHT22;16250;49.932;10.980;2022-11-25T07:44:05;0.60;99.90
29211;DHT22;16250;49.932;10.980;2022-11-25T07:46:37;0.70;99.90
29211;DHT22;16250;49.932;10.980;2022-11-25T07:49:05;0.80;99.90
29211;DHT22;16250;49.932;10.980;2022-11-25T07:51:43;0.70;99.90
29211;DHT22;16250;49.932;10.980;2022-11-25T07:54:12;0.80;99.90
29211;DHT22;16250;49.932;10.980;2022-11-25T07:56:39;0.90;99.90
29211;DHT22;16250;49.932;10.980;2022-11-25T07:59:07;1.00;99.90
29211;DHT22;16250;49.932;10.980;2022-11-25T08:01:34;1.10;99.90
29211;DHT22;16250;49.932;10.980;2022-11-25T08:03:59;1.30;99.90
29211;DHT22;16250;49.932;10.980;2022-11-25T08:06:27;1.50;99.90
29211;DHT22;16250;49.932;10.980;2022-11-25T08:08:54;1.40;99.90
29211;DHT22;16250;49.932;10.980;2022-11-25T08:11:30;1.50;99.90
29211;DHT22;16250;49.932;10.980;2022-11-25T08:13:56;1.50;99.90
29211;DHT22;16250;49.932;10.980;2022-11-25T08:16:25;1.50;99.90
29211;DHT22;16250;49.932;10.980;2022-11-25T08:18:53;1.50;99.90
29211;DHT22;16250;49.932;10.980;2022-11-25T08:21:18;1.40;99.90
29211;DHT22;16250;49.932;10.980;2022-11-25T08:23:44;1.40;99.90
29211;DHT22;16250;49.932;10.980;2022-11-25T08:26:16;1.40;99.90
29211;DHT22;16250;49.932;10.980;2022-11-25T08:28:42;1.40;99.90
29211;DHT22;16250;49.932;10.980;2022-11-25T08:31:16;1.30;99.90
29211;DHT22;16250;49.932;10.980;2022-11-25T08:33:42;1.20;99.90
29211;DHT22;16250;49.932;10.980;2022-11-25T08:36:09;1.20;99.90
29211;DHT22;16250;49.932;10.980;2022-11-25T08:38:35;1.30;99.90
29211;DHT22;16250;49.932;10.980;2022-11-25T08:41:00;1.50;99.90
29211;DHT22;16250;49.932;10.980;2022-11-25T08:43:26;1.50;99.90
29211;DHT22;16250;49.932;10.980;2022-11-25T08:45:52;1.60;99.90
29211;DHT22;16250;49.932;10.980;2022-11-25T08:48:19;1.80;99.90
29211;DHT22;16250;49.932;10.980;2022-11-25T08:50:49;1.90;99.90
29211;DHT22;16250;49.932;10.980;2022-11-25T08:53:15;2.10;99.90
29211;DHT22;16250;49.932;10.980;2022-11-25T08:55:41;2.10;99.90
29211;DHT22;16250;49.932;10.980;2022-11-25T08:58:06;2.30;99.90
29211;DHT22;16250;49.932;10.980;2022-11-25T09:00:36;2.40;99.90
29211;DHT22;16250;49.932;10.980;2022-11-25T09:03:01;2.50;99.90
29211;DHT22;16250;49.932;10.980;2022-11-25T09:05:27;2.70;99.90
29211;DHT22;16250;49.932;10.980;2022-11-25T09:07:54;2.80;99.90
29211;DHT22;16250;49.932;10.980;2022-11-25T09:10:19;3.00;99.90
29211;DHT22;16250;49.932;10.980;2022-11-25T09:12:45;3.10;99.90
29211;DHT22;16250;49.932;10.980;2022-11-25T09:15:10;3.30;99.90
29211;DHT22;16250;49.932;10.980;2022-11-25T09:17:36;3.40;99.90
29211;DHT22;16250;49.932;10.980;2022-11-25T09:20:05;3.60;99.90
29211;DHT22;16250;49.932;10.980;2022-11-25T09:22:31;3.70;99.90
29211;DHT22;16250;49.932;10.980;2022-11-25T09:24:57;3.90;99.90
29211;DHT22;16250;49.932;10.980;2022-11-25T09:27:22;4.00;99.90
29211;DHT22;16250;49.932;10.980;2022-11-25T09:29:48;4.10;99.90
29211;DHT22;16250;49.932;10.980;2022-11-25T09:32:14;4.40;99.90
29211;DHT22;16250;49.932;10.980;2022-11-25T09:34:39;4.50;99.90
29211;DHT22;16250;49.932;10.980;2022-11-25T09:37:05;4.40;99.90
29211;DHT22;16250;49.932;10.980;2022-11-25T09:39:30;4.50;99.90
29211;DHT22;16250;49.932;10.980;2022-11-25T09:45:50;4.90;99.90
29211;DHT22;16250;49.932;10.980;2022-11-25T09:52:00;5.20;99.90
29211;DHT22;16250;49.932;10.980;2022-11-25T09:54:39;5.30;99.90
29211;DHT22;16250;49.932;10.980;2022-11-25T09:57:24;5.30;99.90
29211;DHT22;16250;49.932;10.980;2022-11-25T10:00:09;5.30;99.90
29211;DHT22;16250;49.932;10.980;2022-11-25T10:05:33;5.40;99.90
29211;DHT22;16250;49.932;10.980;2022-11-25T10:08:29;5.20;99.90
29211;DHT22;16250;49.932;10.980;2022-11-25T10:14:12;5.10;99.90
29211;DHT22;16250;49.932;10.980;2022-11-25T10:16:50;5.20;99.90
29211;DHT22;16250;49.932;10.980;2022-11-25T10:19:33;5.10;99.90
29211;DHT22;16250;49.932;10.980;2022-11-25T10:22:33;5.10;99.90
29211;DHT22;16250;49.932;10.980;2022-11-25T10:25:01;5.20;99.90
29211;DHT22;16250;49.932;10.980;2022-11-25T10:27:42;5.30;99.90
29211;DHT22;16250;49.932;10.980;2022-11-25T10:30:17;5.50;99.90
29211;DHT22;16250;49.932;10.980;2022-11-25T10:33:12;5.60;99.90
29211;DHT22;16250;49.932;10.980;2022-11-25T10:41:44;5.90;99.90
29211;DHT22;16250;49.932;10.980;2022-11-25T10:44:37;6.00;99.90
29211;DHT22;16250;49.932;10.980;2022-11-25T10:50:15;6.10;99.90
29211;DHT22;16250;49.932;10.980;2022-11-25T10:53:00;6.10;99.90
29211;DHT22;16250;49.932;10.980;2022-11-25T10:55:29;6.30;99.90
29211;DHT22;16250;49.932;10.980;2022-11-25T10:57:56;6.30;99.90
29211;DHT22;16250;49.932;10.980;2022-11-25T11:00:36;6.30;99.90
29211;DHT22;16250;49.932;10.980;2022-11-25T11:03:24;6.30;99.90
29211;DHT22;16250;49.932;10.980;2022-11-25T11:05:52;6.30;99.90
29211;DHT22;16250;49.932;10.980;2022-11-25T11:08:24;6.30;99.90
29211;DHT22;16250;49.932;10.980;2022-11-25T11:11:14;6.30;99.90
29211;DHT22;16250;49.932;10.980;2022-11-25T11:13:40;6.40;99.90
29211;DHT22;16250;49.932;10.980;2022-11-25T11:16:35;6.50;99.90
29211;DHT22;16250;49.932;10.980;2022-11-25T11:19:01;6.60;99.90
29211;DHT22;16250;49.932;10.980;2022-11-25T11:21:38;6.60;99.90
29211;DHT22;16250;49.932;10.980;2022-11-25T11:24:25;6.60;99.90
29211;DHT22;16250;49.932;10.980;2022-11-25T11:29:35;6.70;99.90
29211;DHT22;16250;49.932;10.980;2022-11-25T11:32:03;6.70;99.90
29211;DHT22;16250;49.932;10.980;2022-11-25T11:34:44;6.70;99.90
29211;DHT22;16250;49.932;10.980;2022-11-25T11:45:52;6.90;99.90
29211;DHT22;16250;49.932;10.980;2022-11-25T11:51:37;7.00;99.90
29211;DHT22;16250;49.932;10.980;2022-11-25T11:54:45;7.00;99.90
29211;DHT22;16250;49.932;10.980;2022-11-25T11:57:22;7.10;99.90
29211;DHT22;16250;49.932;10.980;2022-11-25T11:59:51;7.00;99.90
29211;DHT22;16250;49.932;10.980;2022-11-25T12:02:37;6.90;99.90
29211;DHT22;16250;49.932;10.980;2022-11-25T12:05:17;6.70;99.90
29211;DHT22;16250;49.932;10.980;2022-11-25T12:12:59;6.60;99.90
29211;DHT22;16250;49.932;10.980;2022-11-25T12:21:21;6.70;99.90
29211;DHT22;16250;49.932;10.980;2022-11-25T12:26:28;6.80;99.90
29211;DHT22;16250;49.932;10.980;2022-11-25T12:28:59;6.70;99.90
29211;DHT22;16250;49.932;10.980;2022-11-25T12:31:29;6.70;99.90
29211;DHT22;16250;49.932;10.980;2022-11-25T12:36:36;6.70;99.90
29211;DHT22;16250;49.932;10.980;2022-11-25T12:39:07;6.70;99.90
29211;DHT22;16250;49.932;10.980;2022-11-25T12:41:43;6.60;99.90
29211;DHT22;16250;49.932;10.980;2022-11-25T12:46:56;6.70;99.90
29211;DHT22;16250;49.932;10.980;2022-11-25T12:49:39;6.70;99.90
29211;DHT22;16250;49.932;10.980;2022-11-25T12:57:30;6.70;99.90
29211;DHT22;16250;49.932;10.980;2022-11-25T13:16:47;6.40;99.90
29211;DHT22;16250;49.932;10.980;2022-11-25T13:19:16;6.40;99.90
29211;DHT22;16250;49.932;10.980;2022-11-25T13:22:04;6.40;99.90
29211;DHT22;16250;49.932;10.980;2022-11-25T13:24:37;6.40;99.90
29211;DHT22;16250;49.932;10.980;2022-11-25T13:27:03;6.40;99.90
29211;DHT22;16250;49.932;10.980;2022-11-25T13:32:03;6.20;99.90
29211;DHT22;16250;49.932;10.980;2022-11-25T13:34:35;6.20;99.90
29211;DHT22;16250;49.932;10.980;2022-11-25T13:37:34;6.10;99.90
29211;DHT22;16250;49.932;10.980;2022-11-25T13:42:49;6.10;99.90
29211;DHT22;16250;49.932;10.980;2022-11-25T13:45:25;6.10;99.90
29211;DHT22;16250;49.932;10.980;2022-11-25T13:47:51;6.10;99.90
29211;DHT22;16250;49.932;10.980;2022-11-25T13:50:23;6.00;99.90
29211;DHT22;16250;49.932;10.980;2022-11-25T13:55:23;6.00;99.90
29211;DHT22;16250;49.932;10.980;2022-11-25T14:08:49;6.00;99.90
29211;DHT22;16250;49.932;10.980;2022-11-25T14:17:17;5.80;99.90
29211;DHT22;16250;49.932;10.980;2022-11-25T14:20:12;5.90;99.90
29211;DHT22;16250;49.932;10.980;2022-11-25T14:25:48;5.80;99.90
29211;DHT22;16250;49.932;10.980;2022-11-25T14:30:49;5.80;99.90
29211;DHT22;16250;49.932;10.980;2022-11-25T14:33:19;5.80;99.90
29211;DHT22;16250;49.932;10.980;2022-11-25T14:36:01;5.80;99.90
29211;DHT22;16250;49.932;10.980;2022-11-25T14:38:36;5.80;99.90
29211;DHT22;16250;49.932;10.980;2022-11-25T14:43:51;5.70;99.90
29211;DHT22;16250;49.932;10.980;2022-11-25T14:46:20;5.80;99.90
29211;DHT22;16250;49.932;10.980;2022-11-25T14:48:56;5.80;99.90
29211;DHT22;16250;49.932;10.980;2022-11-25T14:51:24;5.80;99.90
29211;DHT22;16250;49.932;10.980;2022-11-25T14:53:50;5.80;99.90
29211;DHT22;16250;49.932;10.980;2022-11-25T14:56:27;5.80;99.90
29211;DHT22;16250;49.932;10.980;2022-11-25T14:58:54;5.80;99.90
29211;DHT22;16250;49.932;10.980;2022-11-25T15:03:49;5.70;99.90
29211;DHT22;16250;49.932;10.980;2022-11-25T15:06:16;5.80;99.90
29211;DHT22;16250;49.932;10.980;2022-11-25T15:08:52;5.80;99.90
29211;DHT22;16250;49.932;10.980;2022-11-25T15:11:21;5.80;99.90
29211;DHT22;16250;49.932;10.980;2022-11-25T15:14:01;5.90;99.90
29211;DHT22;16250;49.932;10.980;2022-11-25T15:16:45;5.80;99.90
29211;DHT22;16250;49.932;10.980;2022-11-25T15:19:17;5.80;99.90
29211;DHT22;16250;49.932;10.980;2022-11-25T15:21:43;5.70;99.90
29211;DHT22;16250;49.932;10.980;2022-11-25T15:24:27;5.70;99.90
29211;DHT22;16250;49.932;10.980;2022-11-25T15:26:58;5.80;99.90
29211;DHT22;16250;49.932;10.980;2022-11-25T15:29:26;5.80;99.90
29211;DHT22;16250;49.932;10.980;2022-11-25T15:31:53;5.80;99.90
29211;DHT22;16250;49.932;10.980;2022-11-25T15:34:21;5.80;99.90
29211;DHT22;16250;49.932;10.980;2022-11-25T15:36:48;5.70;99.90
29211;DHT22;16250;49.932;10.980;2022-11-25T15:39:23;5.80;99.90
29211;DHT22;16250;49.932;10.980;2022-11-25T15:41:52;5.80;99.90
29211;DHT22;16250;49.932;10.980;2022-11-25T15:46:52;5.80;99.90
29211;DHT22;16250;49.932;10.980;2022-11-25T15:49:19;5.80;99.90
29211;DHT22;16250;49.932;10.980;2022-11-25T15:52:07;5.80;99.90
29211;DHT22;16250;49.932;10.980;2022-11-25T15:54:43;5.80;99.90
29211;DHT22;16250;49.932;10.980;2022-11-25T15:57:22;5.80;99.90
29211;DHT22;16250;49.932;10.980;2022-11-25T16:07:56;5.80;99.90
29211;DHT22;16250;49.932;10.980;2022-11-25T16:10:52;5.80;99.90
29211;DHT22;16250;49.932;10.980;2022-11-25T16:15:51;5.70;99.90
29211;DHT22;16250;49.932;10.980;2022-11-25T16:18:19;5.70;99.90
29211;DHT22;16250;49.932;10.980;2022-11-25T16:20:55;5.60;99.90
29211;DHT22;16250;49.932;10.980;2022-11-25T16:23:22;5.70;99.90
29211;DHT22;16250;49.932;10.980;2022-11-25T16:25:59;5.70;99.90
29211;DHT22;16250;49.932;10.980;2022-11-25T16:28:25;5.70;99.90
29211;DHT22;16250;49.932;10.980;2022-11-25T16:30:51;5.70;99.90
29211;DHT22;16250;49.932;10.980;2022-11-25T16:33:18;5.70;99.90
29211;DHT22;16250;49.932;10.980;2022-11-25T16:35:44;5.70;99.90
29211;DHT22;16250;49.932;10.980;2022-11-25T16:38:10;5.70;99.90
29211;DHT22;16250;49.932;10.980;2022-11-25T16:40:37;5.70;99.90
29211;DHT22;16250;49.932;10.980;2022-11-25T16:43:05;5.70;99.90
29211;DHT22;16250;49.932;10.980;2022-11-25T16:45:31;5.70;99.90
29211;DHT22;16250;49.932;10.980;2022-11-25T16:47:57;5.70;99.90
29211;DHT22;16250;49.932;10.980;2022-11-25T16:50:22;5.70;99.90
29211;DHT22;16250;49.932;10.980;2022-11-25T16:52:48;5.80;99.90
29211;DHT22;16250;49.932;10.980;2022-11-25T16:55:14;5.80;99.90
29211;DHT22;16250;49.932;10.980;2022-11-25T16:57:42;5.80;99.90
29211;DHT22;16250;49.932;10.980;2022-11-25T17:00:13;5.80;99.90
29211;DHT22;16250;49.932;10.980;2022-11-25T17:02:41;5.80;99.90
29211;DHT22;16250;49.932;10.980;2022-11-25T17:05:24;5.80;99.90
29211;DHT22;16250;49.932;10.980;2022-11-25T17:07:50;5.90;99.90
29211;DHT22;16250;49.932;10.980;2022-11-25T17:10:16;5.80;99.90
29211;DHT22;16250;49.932;10.980;2022-11-25T17:12:42;5.90;99.90
29211;DHT22;16250;49.932;10.980;2022-11-25T17:15:15;5.90;99.90
29211;DHT22;16250;49.932;10.980;2022-11-25T17:17:43;5.90;99.90
29211;DHT22;16250;49.932;10.980;2022-11-25T17:20:18;5.80;99.90
29211;DHT22;16250;49.932;10.980;2022-11-25T17:22:45;5.90;99.90
29211;DHT22;16250;49.932;10.980;2022-11-25T17:25:11;5.80;99.90
29211;DHT22;16250;49.932;10.980;2022-11-25T17:27:37;5.70;99.90
29211;DHT22;16250;49.932;10.980;2022-11-25T17:30:05;5.80;99.90
29211;DHT22;16250;49.932;10.980;2022-11-25T17:32:32;5.80;99.90
29211;DHT22;16250;49.932;10.980;2022-11-25T17:34:58;5.90;99.90
29211;DHT22;16250;49.932;10.980;2022-11-25T17:37:24;5.80;99.90
29211;DHT22;16250;49.932;10.980;2022-11-25T17:39:51;5.80;99.90
29211;DHT22;16250;49.932;10.980;2022-11-25T17:42:32;5.90;99.90
29211;DHT22;16250;49.932;10.980;2022-11-25T17:44:57;5.90;99.90
29211;DHT22;16250;49.932;10.980;2022-11-25T17:47:24;5.90;99.90
29211;DHT22;16250;49.932;10.980;2022-11-25T17:49:49;5.90;99.90
29211;DHT22;16250;49.932;10.980;2022-11-25T17:52:16;5.90;99.90
29211;DHT22;16250;49.932;10.980;2022-11-25T17:54:42;5.90;99.90
29211;DHT22;16250;49.932;10.980;2022-11-25T17:57:13;5.80;99.90